Terminal Aerodrome Forecast
Issued by NWS Charleston, WV

Current Version | Previous Version | Graphics & Text | Print | Product List | Glossary On
Versions: 1 2 3 4 5 6 7 8 9 10 11 12 13 14 15 16 17 18 19 20 21 22 23 24 25
628
FTUS41 KRLX 240917 AAC
TAFBKW
TAF AMD
KBKW 240917Z 2409/2506 24005KT P6SM SCT005 BKN035
      TEMPO 2409/2412 BKN005
     FM241300 27005KT P6SM SCT050
     FM241800 28010KT P6SM BKN050
     FM250000 31005KT P6SM SCT100=

USA.gov is the U.S. government's official web portal to all federal, state and local government web resources and services.